Tiempo atmosférico en la estación meteorológica de Teror, Las Palmas (683 m.)



Fecha
DESCASC
Temp. máxima en grados centígrados (hora)
DESCASC
Temp. mínima en grados centígrados (hora)
DESCASC
Temp. media en grados centígrados
DESCASC
Racha de viento máxima en m/sg (hora)
DESCASC
Velocidad máxima media en intervalos de 10 minutos(hora)
DESCASC
Precipitaciones diarias en mm
DESCASC
Precipitaciones de 00:00 a 06:00 en mm
DESCASC
Precipitaciones de 06:00 a 12:00 en mm
DESCASC
Precipitaciones de 12:00 a 18:00 en mm
DESCASC
Precipitaciones de 18:00 a 24:00 en mm
DESCASC
20-01-2019 14.9 (13:50) 9.8 (02:50) 12.3 9.72 (22:20) 5 (22:50) 8 0.2 0.4 0 7.4
19-01-2019 13.3 (12:50) 9.2 (01:20) 11.3 7.5 (07:30) 3.33 (10:30) 7 0 2.4 3.2 1.4
18-01-2019 12.7 (10:50) 9.5 (00:00) 11.1 10 (12:10) 5.28 (13:10) 7.6 5.6 0.6 1.4 0
17-01-2019 13.8 (12:40) 9 (00:00) 11.4 12.22 (17:00) 5.83 (21:30) 13.2 3.4 2 3.8 4
16-01-2019 16.5 (13:40) 6.7 (00:00) 11.6 6.67 (11:40) 2.78 (12:30) 0 0 0 0 0
15-01-2019 18.9 (14:20) 7.2 (00:00) 13 6.67 (11:50) 3.33 (12:30) 0 0 0 0 0
14-01-2019 20.5 (12:50) 9.5 (00:00) 15 8.89 (12:00) 4.72 (00:10) 0 0 0 0 0
13-01-2019 23.7 (11:30) 9.1 (00:00) 16.4 9.44 (23:30) 5 (22:00) 0 0 0 0 0
12-01-2019 17.9 (14:20) 6.5 (00:00) 12.2 8.06 (11:10) 4.72 (11:00) 0 0 0 0 0
11-01-2019 17.1 (12:40) 5.9 (00:00) 11.5 6.11 (18:30) 3.33 (18:30) 0 0 0 0 0
10-01-2019 16.3 (14:30) 3.5 (00:00) 9.9 5 (13:50) 2.5 (13:50) 0 0 0 0 0
09-01-2019 19 (10:40) 4.3 (00:00) 11.7 4.44 (12:30) 2.5 (12:50) 0 0 0 0 0
08-01-2019 19.9 (11:00) 6.4 (00:00) 13.1 6.67 (13:00) 3.89 (13:30) 0 0 0 0 0
07-01-2019 18.2 (14:30) 9.3 (00:00) 13.8 11.11 (03:00) 6.11 (03:20) 0 0 0 0 0
06-01-2019 17.9 (14:30) 9.8 (00:00) 13.8 10.28 (13:20) 5.56 (13:10) 0 0 0 0 0
05-01-2019 19.7 (14:50) 6 (00:00) 12.9 9.44 (11:00) 5 (11:00) 0 0 0 0 0
04-01-2019 17.6 (13:10) 6.8 (00:00) 12.2 6.39 (12:20) 3.61 (11:10) 0 0 0 0 0
03-01-2019 17.7 (10:00) 8.7 (00:00) 13.2 5.83 (05:20) 3.06 (10:40) 0 0 0 0 0
02-01-2019 19.8 (10:50) 7.9 (00:00) 13.8 7.78 (13:30) 4.72 (11:40) 0 0 0 0 0
01-01-2019 22.4 (13:10) 7 (00:00) 14.7 9.72 (12:00) 5.28 (12:10) 0 0 0 0 0
31-12-2018 19.9 (16:30) 8.2 (00:00) 14 7.22 (14:10) 3.89 (13:30) 0 0 0 0 0
30-12-2018 18 (13:00) 7.4 (00:00) 12.7 4.72 (16:10) 2.5 (10:10) 0 0 0 0 0
29-12-2018 18.6 (11:30) 9.1 (00:00) 13.9 5.83 (14:10) 3.33 (12:00) 0 0 0 0 0
28-12-2018 18.8 (11:00) 6.4 (00:00) 12.6 4.44 (13:10) 2.78 (14:40) 0.2 0.2 0 0 0
27-12-2018 21.4 (10:10) 6 (00:00) 13.7 3.89 (13:10) 2.22 (14:00) 0 0 0 0 0
26-12-2018 23.6 (09:50) 10.9 (00:00) 17.3 5.83 (15:20) 3.61 (13:10) 0 0 0 0 0
25-12-2018 22.1 (10:40) 9.3 (00:00) 15.7 5 (03:10) 3.06 (07:40) 0 0 0 0 0
24-12-2018 21.7 (14:10) 8.6 (22:40) 15.2 12.5 (02:10) 6.67 (15:10) 0 0 0 0 0
23-12-2018 19 (11:20) 13.3 (00:00) 16.2 13.33 (04:50) 6.39 (07:40) 0 0 0 0 0

Gráficas

Temp. máximas Temp. mínimas Temp. medias Precipitaciones Rachas de viento máximas Velocidades máximas media en intervalos de 10 minutos

Datos horarios

Fecha y hora oficial Temperatura (ºC) Velocidad del viento (km/h) Dirección del viento Racha (km/h) Dirección de racha Precipitación (mm) Presión (hPa) Tendencia (hPa) Humedad (%)
2019-01-21 23:00:00 10.1 7 Norte 21 Norte 0 -- -- 100
2019-01-21 22:00:00 10.5 11 Norte 21 Norte 0.4 -- -- 100
2019-01-21 21:00:00 10.3 8 Norte 23 Noroeste 0 -- -- 100
2019-01-21 20:00:00 10.2 9 Norte 23 Norte 0 -- -- 100
2019-01-21 19:00:00 10.3 13 Norte 26 Norte 0 -- -- 100
2019-01-21 18:00:00 10.6 13 Norte 23 Norte 0 -- -- 100
2019-01-21 17:00:00 10.5 9 Norte 27 Norte 0.4 -- -- 100
2019-01-21 16:00:00 11.2 15 Norte 31 Norte 0.2 -- -- 98
2019-01-21 15:00:00 11.5 13 Norte 27 Norte 1.2 -- -- 98
2019-01-21 14:00:00 13 10 Norte 22 Norte 0 -- -- 88
2019-01-21 13:00:00 12.7 13 Norte 30 Nordeste 0 -- -- 88
2019-01-21 12:00:00 13.9 10 Noroeste 24 Noroeste 0 -- -- 80
2019-01-21 11:00:00 11.6 14 Norte 31 Norte 0 -- -- 98
2019-01-21 10:00:00 11 13 Norte 30 Norte 0 -- -- 100
2019-01-21 09:00:00 11 9 Norte 26 Norte 0.2 -- -- 100
2019-01-21 08:00:00 10.7 9 Norte 20 Norte 0.4 -- -- 100
2019-01-21 07:00:00 11 9 Norte 24 Norte 0.2 -- -- 100
2019-01-21 06:00:00 11 12 Norte 26 Norte 0.4 -- -- 100
2019-01-21 05:00:00 11.2 9 Norte 22 Norte 0 -- -- 100
2019-01-21 04:00:00 11.2 10 Norte 25 Norte 0.2 -- -- 100
2019-01-21 03:00:00 11 9 Noroeste 24 Noroeste 0.2 -- -- 100
2019-01-21 02:00:00 10.4 11 Oeste 19 Oeste 0 -- -- 100
2019-01-21 01:00:00 11.1 9 Norte 21 Norte 0 -- -- 100
2019-01-21 00:00:00 11.4 13 Norte 34 Norte 0 -- -- 100
2019-01-20 23:00:00 11.5 18 Norte 35 Norte 0.2 -- -- 100
2019-01-20 22:00:00 11.6 13 Norte 33 Norte 5.2 -- -- 100
2019-01-20 21:00:00 12 11 Noroeste 25 Noroeste 1.8 -- -- 100
2019-01-20 20:00:00 11.6 8 Sudeste 19 Noroeste 0.2 -- -- 99
2019-01-20 19:00:00 11.9 4 Norte 22 Oeste 0 -- -- 93
2019-01-20 18:00:00 12.2 10 Oeste 23 Oeste 0 -- -- 91
2019-01-20 17:00:00 13.2 14 Oeste 26 Noroeste 0 -- -- 87
2019-01-20 16:00:00 13.5 9 Noroeste 31 Noroeste 0 -- -- 86
2019-01-20 15:00:00 12.8 13 Noroeste 30 Noroeste 0 -- -- 91
2019-01-20 14:00:00 14.6 14 Noroeste 28 Oeste 0 -- -- 81
2019-01-20 13:00:00 14 15 Noroeste 28 Norte 0 -- -- 80
2019-01-20 12:00:00 12.5 8 Noroeste 24 Noroeste 0 -- -- 90
2019-01-20 11:00:00 12.5 6 Oeste 17 Sudoeste 0 -- -- 89
2019-01-20 10:00:00 11.8 9 Noroeste 19 Noroeste 0 -- -- 91
2019-01-20 09:00:00 10.7 6 Noroeste 22 Noroeste 0 -- -- 99
2019-01-20 08:00:00 10.2 7 Noroeste 14 Noroeste 0.2 -- -- 100
2019-01-20 07:00:00 10.3 7 Noroeste 13 Norte 0.2 -- -- 100
2019-01-20 06:00:00 10.3 4 Noroeste 13 Oeste 0 -- -- 99
2019-01-20 05:00:00 10.3 8 Noroeste 14 Noroeste 0.2 -- -- 99
2019-01-20 04:00:00 10.4 7 Noroeste 14 Oeste 0 -- -- 99
2019-01-20 03:00:00 9.9 5 Oeste 13 Norte 0 -- -- 100
2019-01-20 02:00:00 10 5 Oeste 12 Noroeste 0 -- -- 100
2019-01-20 01:00:00 10.1 6 Noroeste 14 Noroeste 0 -- -- 100
2019-01-20 00:00:00 10.3 7 Noroeste 13 Noroeste 0.2 -- -- 100
2019-01-19 23:00:00 10.3 6 Noroeste 13 Oeste 0 -- -- 100
2019-01-19 22:00:00 10.2 6 Norte 11 Nordeste 0 -- -- 100
2019-01-19 21:00:00 10.5 4 Norte 19 Norte 0.4 -- -- 100
2019-01-19 20:00:00 10.9 8 Norte 15 Norte 0.2 -- -- 100
2019-01-19 19:00:00 10.7 6 Norte 16 Norte 0.6 -- -- 100
2019-01-19 18:00:00 10.8 7 Norte 21 Norte 0.8 -- -- 100
2019-01-19 17:00:00 11.8 6 Nordeste 16 Norte 1.4 -- -- 100
2019-01-19 16:00:00 12.1 9 Nordeste 19 Nordeste 0 -- -- 98
2019-01-19 15:00:00 12.4 10 Norte 18 Norte 0.8 -- -- 99
2019-01-19 14:00:00 11.9 9 Norte 21 Nordeste 0 -- -- 100
2019-01-19 13:00:00 13 5 Norte 12 Norte 0.2 -- -- 95
2019-01-19 12:00:00 12.1 4 Este 12 Este 0 -- -- 97
2019-01-19 11:00:00 11.1 7 Norte 26 Nordeste 0.2 -- -- 100
2019-01-19 10:00:00 10.8 8 Nordeste 19 Norte 0.2 -- -- 100
2019-01-19 09:00:00 10.4 3 Norte 18 Nordeste 1.2 -- -- 100
2019-01-19 08:00:00 10.3 3 Norte 27 Este 0.8 -- -- 100
2019-01-19 07:00:00 10.5 5 Norte 13 Norte 0 -- -- 97
2019-01-19 06:00:00 10.3 8 Norte 16 Noroeste 0 -- -- 92
2019-01-19 05:00:00 9.4 5 Noroeste 12 Norte 0 -- -- 93
2019-01-19 04:00:00 9.9 6 Norte 16 Norte 0 -- -- 93
2019-01-19 03:00:00 10.2 8 Norte 18 Noroeste 0 -- -- 93
2019-01-19 02:00:00 10.1 8 Norte 18 Norte 0 -- -- 96
2019-01-19 01:00:00 9.7 8 Noroeste 17 Norte 0 -- -- 94
2019-01-19 00:00:00 9.9 8 Noroeste 18 Oeste 0 -- -- 96
2019-01-18 23:00:00 10 8 Noroeste 15 Norte 0 -- -- 95
2019-01-18 22:00:00 9.6 7 Noroeste 25 Norte 0 -- -- 94
2019-01-18 21:00:00 10.2 11 Norte 32 Norte 0 -- -- 96
2019-01-18 20:00:00 10.1 10 Noroeste 21 Norte 0 -- -- 94
2019-01-18 19:00:00 10.3 11 Norte 24 Noroeste 0 -- -- 93
2019-01-18 18:00:00 10.7 10 Norte 25 Norte 0 -- -- 92
2019-01-18 17:00:00 11.4 10 Norte 24 Norte 0 -- -- 92
2019-01-18 16:00:00 11.4 15 Norte 30 Norte 0 -- -- 94
2019-01-18 15:00:00 11.5 14 Norte 28 Norte 0.2 -- -- 98
2019-01-18 14:00:00 11.3 16 Norte 30 Norte 0 -- -- 100
2019-01-18 13:00:00 11.8 15 Norte 36 Nordeste 1.2 -- -- 100
2019-01-18 12:00:00 12.1 16 Norte 28 Norte 0 -- -- 95
2019-01-18 11:00:00 12.6 10 Norte 29 Noroeste 0 -- -- 95
2019-01-18 10:00:00 11.4 13 Norte 26 Norte 0.6 -- -- 98
2019-01-18 09:00:00 11.4 9 Norte 18 Norte 0 -- -- 99
2019-01-18 08:00:00 10.1 9 Norte 19 Norte 0 -- -- 100
2019-01-18 07:00:00 10 9 Norte 19 Noroeste 0 -- -- 100
2019-01-18 06:00:00 10 8 Norte 22 Norte 0 -- -- 100
2019-01-18 05:00:00 10 9 Norte 21 Nordeste 0 -- -- 100
2019-01-18 04:00:00 10 10 Norte 25 Norte 0.4 -- -- 100
2019-01-18 03:00:00 9.5 10 Norte 22 Norte 0 -- -- 100
2019-01-18 02:00:00 10.4 12 Norte 35 Norte 3.2 -- -- 100
2019-01-18 01:00:00 10.1 12 Noroeste 28 Noroeste 2.2 -- -- 100
2019-01-18 00:00:00 10.1 14 Norte 30 Noroeste 0.2 -- -- 100
2019-01-17 23:00:00 10.2 14 Norte 32 Norte 0 -- -- 100
2019-01-17 22:00:00 10.1 16 Norte 41 Noroeste 0.4 -- -- 100
2019-01-17 21:00:00 10.1 11 Norte 28 Noroeste 1.2 -- -- 100
2019-01-17 20:00:00 9.9 14 Norte 30 Noroeste 0 -- -- 100
2019-01-17 19:00:00 9.8 10 Noroeste 31 Norte 2.2 -- -- 100
2019-01-17 18:00:00 10.2 9 Norte 29 Noroeste 0.4 -- -- 99
2019-01-17 17:00:00 10.6 16 Noroeste 44 Noroeste 0.2 -- -- 99
2019-01-17 16:00:00 10.2 9 Norte 26 Norte 3.2 -- -- 96
2019-01-17 15:00:00 13.2 9 Noroeste 28 Norte 0 -- -- 79
2019-01-17 14:00:00 12.8 8 Noroeste 28 Norte 0 -- -- 82
2019-01-17 13:00:00 13.6 13 Noroeste 25 Noroeste 0 -- -- 84
2019-01-17 12:00:00 12 8 Norte 28 Norte 0 -- -- 92
2019-01-17 11:00:00 11.3 11 Noroeste 34 Noroeste 1.8 -- -- 96
2019-01-17 10:00:00 12 10 Norte 23 Noroeste 0 -- -- 91
2019-01-17 09:00:00 10.1 9 Noroeste 23 Norte 0.2 -- -- 99
2019-01-17 08:00:00 10 6 Norte 22 Norte 0 -- -- 100
2019-01-17 07:00:00 10 9 Norte 23 Norte 0.2 -- -- 100
2019-01-17 06:00:00 9.8 4 Noroeste 16 Noroeste 0.4 -- -- 100
2019-01-17 05:00:00 9.3 5 Noroeste 23 Noroeste 1.2 -- -- 99
2019-01-17 04:00:00 9.7 6 Oeste 19 Noroeste 0.4 -- -- 99
2019-01-17 03:00:00 9.5 9 Noroeste 19 Noroeste 1.2 -- -- 100
2019-01-17 02:00:00 9.2 6 Oeste 22 Norte 0.2 -- -- 100
2019-01-17 01:00:00 10.3 13 Norte 31 Noroeste 0 -- -- 99
2019-01-17 00:00:00 10.7 6 Noroeste 18 Noroeste 0 -- -- 94
2019-01-16 23:00:00 10.6 6 Noroeste 14 Noroeste 0 -- -- 97
2019-01-16 22:00:00 11.1 8 Norte 15 Nordeste 0 -- -- 94
2019-01-16 21:00:00 11.2 8 Norte 13 Nordeste 0 -- -- 92
2019-01-16 20:00:00 11.1 7 Norte 15 Norte 0 -- -- 90
2019-01-16 19:00:00 10.9 8 Noroeste 16 Oeste 0 -- -- 91
2019-01-16 18:00:00 11.9 8 Norte 17 Norte 0 -- -- 84
2019-01-16 17:00:00 13.3 8 Noroeste 17 Nordeste 0 -- -- 76
2019-01-16 16:00:00 16 9 Norte 17 Noroeste 0 -- -- 68
2019-01-16 15:00:00 14.3 9 Norte 19 Norte 0 -- -- 76
2019-01-16 14:00:00 16.2 9 Norte 21 Norte 0 -- -- 64
2019-01-16 13:00:00 16 7 Norte 20 Norte 0 -- -- 62
2019-01-16 12:00:00 15.3 5 Norte 24 Nordeste 0 -- -- 68